sensor_id;sensor_type;location;lat;lon;timestamp;P1;durP1;ratioP1;P2;durP2;ratioP2
65567;SDS011;52211;50.154;8.682;2022-08-14T00:00:17;4.97;;;4.67;;
65567;SDS011;52211;50.154;8.682;2022-08-14T00:02:48;4.90;;;4.60;;
65567;SDS011;52211;50.154;8.682;2022-08-14T00:05:19;5.20;;;4.73;;
65567;SDS011;52211;50.154;8.682;2022-08-14T00:07:47;5.40;;;5.00;;
65567;SDS011;52211;50.154;8.682;2022-08-14T00:10:17;5.07;;;4.70;;
65567;SDS011;52211;50.154;8.682;2022-08-14T00:13:10;5.20;;;4.80;;
65567;SDS011;52211;50.154;8.682;2022-08-14T00:15:39;5.00;;;4.70;;
65567;SDS011;52211;50.154;8.682;2022-08-14T00:18:14;5.07;;;4.73;;
65567;SDS011;52211;50.154;8.682;2022-08-14T00:21:08;5.30;;;4.80;;
65567;SDS011;52211;50.154;8.682;2022-08-14T00:23:37;5.33;;;4.97;;
65567;SDS011;52211;50.154;8.682;2022-08-14T00:26:08;5.47;;;5.10;;
65567;SDS011;52211;50.154;8.682;2022-08-14T00:28:49;5.20;;;4.90;;
65567;SDS011;52211;50.154;8.682;2022-08-14T00:31:18;5.40;;;5.03;;
65567;SDS011;52211;50.154;8.682;2022-08-14T00:34:00;6.17;;;5.77;;
65567;SDS011;52211;50.154;8.682;2022-08-14T00:36:47;5.57;;;5.07;;
65567;SDS011;52211;50.154;8.682;2022-08-14T00:39:15;5.20;;;4.90;;
65567;SDS011;52211;50.154;8.682;2022-08-14T00:41:45;5.30;;;5.00;;
65567;SDS011;52211;50.154;8.682;2022-08-14T00:44:13;5.37;;;4.97;;
65567;SDS011;52211;50.154;8.682;2022-08-14T00:46:57;5.87;;;5.47;;
65567;SDS011;52211;50.154;8.682;2022-08-14T00:49:25;5.27;;;4.97;;
65567;SDS011;52211;50.154;8.682;2022-08-14T00:51:57;5.77;;;5.37;;
65567;SDS011;52211;50.154;8.682;2022-08-14T00:54:27;5.37;;;5.07;;
65567;SDS011;52211;50.154;8.682;2022-08-14T00:56:55;5.43;;;5.00;;
65567;SDS011;52211;50.154;8.682;2022-08-14T00:59:29;5.37;;;5.07;;
65567;SDS011;52211;50.154;8.682;2022-08-14T01:02:01;5.27;;;4.97;;
65567;SDS011;52211;50.154;8.682;2022-08-14T01:04:29;6.17;;;5.67;;
65567;SDS011;52211;50.154;8.682;2022-08-14T01:07:19;5.50;;;5.10;;
65567;SDS011;52211;50.154;8.682;2022-08-14T01:09:52;5.70;;;5.23;;
65567;SDS011;52211;50.154;8.682;2022-08-14T01:12:27;5.87;;;5.30;;
65567;SDS011;52211;50.154;8.682;2022-08-14T01:14:58;5.30;;;5.00;;
65567;SDS011;52211;50.154;8.682;2022-08-14T01:17:34;5.77;;;5.47;;
65567;SDS011;52211;50.154;8.682;2022-08-14T01:20:20;5.43;;;5.13;;
65567;SDS011;52211;50.154;8.682;2022-08-14T01:23:09;5.60;;;5.20;;
65567;SDS011;52211;50.154;8.682;2022-08-14T01:25:45;5.50;;;5.20;;
65567;SDS011;52211;50.154;8.682;2022-08-14T01:28:14;5.53;;;5.13;;
65567;SDS011;52211;50.154;8.682;2022-08-14T01:31:01;5.33;;;4.93;;
65567;SDS011;52211;50.154;8.682;2022-08-14T01:33:34;5.73;;;5.37;;
65567;SDS011;52211;50.154;8.682;2022-08-14T01:36:27;5.70;;;5.30;;
65567;SDS011;52211;50.154;8.682;2022-08-14T01:39:14;5.67;;;5.27;;
65567;SDS011;52211;50.154;8.682;2022-08-14T01:41:44;5.40;;;5.10;;
65567;SDS011;52211;50.154;8.682;2022-08-14T01:44:26;5.63;;;5.23;;
65567;SDS011;52211;50.154;8.682;2022-08-14T01:47:01;5.70;;;5.30;;
65567;SDS011;52211;50.154;8.682;2022-08-14T01:49:46;6.03;;;5.63;;
65567;SDS011;52211;50.154;8.682;2022-08-14T01:52:30;5.93;;;5.43;;
65567;SDS011;52211;50.154;8.682;2022-08-14T01:55:23;5.63;;;5.23;;
65567;SDS011;52211;50.154;8.682;2022-08-14T01:57:57;5.83;;;5.43;;
65567;SDS011;52211;50.154;8.682;2022-08-14T02:00:45;5.40;;;5.00;;
65567;SDS011;52211;50.154;8.682;2022-08-14T02:03:20;5.90;;;5.50;;
65567;SDS011;52211;50.154;8.682;2022-08-14T02:05:51;5.67;;;5.37;;
65567;SDS011;52211;50.154;8.682;2022-08-14T02:08:18;5.63;;;5.23;;
65567;SDS011;52211;50.154;8.682;2022-08-14T02:11:00;6.00;;;5.60;;
65567;SDS011;52211;50.154;8.682;2022-08-14T02:13:44;6.23;;;5.60;;
65567;SDS011;52211;50.154;8.682;2022-08-14T02:16:17;5.77;;;5.17;;
65567;SDS011;52211;50.154;8.682;2022-08-14T02:18:55;5.80;;;5.30;;
65567;SDS011;52211;50.154;8.682;2022-08-14T02:21:28;5.47;;;5.17;;
65567;SDS011;52211;50.154;8.682;2022-08-14T02:24:09;5.60;;;5.20;;
65567;SDS011;52211;50.154;8.682;2022-08-14T02:26:59;5.57;;;5.27;;
65567;SDS011;52211;50.154;8.682;2022-08-14T02:29:46;5.43;;;5.13;;
65567;SDS011;52211;50.154;8.682;2022-08-14T02:32:26;5.33;;;5.03;;
65567;SDS011;52211;50.154;8.682;2022-08-14T02:35:11;6.17;;;5.73;;
65567;SDS011;52211;50.154;8.682;2022-08-14T02:37:44;5.33;;;4.93;;
65567;SDS011;52211;50.154;8.682;2022-08-14T02:40:17;6.10;;;5.67;;
65567;SDS011;52211;50.154;8.682;2022-08-14T02:42:59;6.63;;;6.13;;
65567;SDS011;52211;50.154;8.682;2022-08-14T02:45:35;5.53;;;5.13;;
65567;SDS011;52211;50.154;8.682;2022-08-14T02:48:10;5.67;;;5.30;;
65567;SDS011;52211;50.154;8.682;2022-08-14T02:51:03;6.10;;;5.60;;
65567;SDS011;52211;50.154;8.682;2022-08-14T02:53:43;5.67;;;5.27;;
65567;SDS011;52211;50.154;8.682;2022-08-14T02:56:12;5.50;;;5.20;;
65567;SDS011;52211;50.154;8.682;2022-08-14T02:59:03;5.80;;;5.40;;
65567;SDS011;52211;50.154;8.682;2022-08-14T03:01:33;5.90;;;5.50;;
65567;SDS011;52211;50.154;8.682;2022-08-14T03:04:16;5.50;;;5.10;;
65567;SDS011;52211;50.154;8.682;2022-08-14T03:06:46;6.27;;;5.87;;
65567;SDS011;52211;50.154;8.682;2022-08-14T03:09:33;5.97;;;5.57;;
65567;SDS011;52211;50.154;8.682;2022-08-14T03:12:22;6.00;;;5.50;;
65567;SDS011;52211;50.154;8.682;2022-08-14T03:14:58;6.03;;;5.60;;
65567;SDS011;52211;50.154;8.682;2022-08-14T03:17:41;6.10;;;5.70;;
65567;SDS011;52211;50.154;8.682;2022-08-14T03:20:25;5.97;;;5.60;;
65567;SDS011;52211;50.154;8.682;2022-08-14T03:22:57;5.63;;;5.23;;
65567;SDS011;52211;50.154;8.682;2022-08-14T03:25:30;6.10;;;5.50;;
65567;SDS011;52211;50.154;8.682;2022-08-14T03:28:06;5.87;;;5.47;;
65567;SDS011;52211;50.154;8.682;2022-08-14T03:30:54;5.30;;;5.00;;
65567;SDS011;52211;50.154;8.682;2022-08-14T03:33:30;5.93;;;5.60;;
65567;SDS011;52211;50.154;8.682;2022-08-14T03:36:06;6.20;;;5.70;;
65567;SDS011;52211;50.154;8.682;2022-08-14T03:39:04;5.77;;;5.37;;
65567;SDS011;52211;50.154;8.682;2022-08-14T03:41:53;6.40;;;5.80;;
65567;SDS011;52211;50.154;8.682;2022-08-14T03:44:27;5.93;;;5.43;;
65567;SDS011;52211;50.154;8.682;2022-08-14T03:47:13;6.30;;;5.87;;
65567;SDS011;52211;50.154;8.682;2022-08-14T03:49:43;6.33;;;5.83;;
65567;SDS011;52211;50.154;8.682;2022-08-14T03:52:15;7.00;;;6.50;;
65567;SDS011;52211;50.154;8.682;2022-08-14T03:55:06;6.83;;;6.33;;
65567;SDS011;52211;50.154;8.682;2022-08-14T03:57:38;6.10;;;5.70;;
65567;SDS011;52211;50.154;8.682;2022-08-14T04:00:12;6.63;;;6.03;;
65567;SDS011;52211;50.154;8.682;2022-08-14T04:03:02;6.27;;;5.87;;
65567;SDS011;52211;50.154;8.682;2022-08-14T04:05:37;6.67;;;6.17;;
65567;SDS011;52211;50.154;8.682;2022-08-14T04:08:14;6.80;;;6.40;;
65567;SDS011;52211;50.154;8.682;2022-08-14T04:10:57;6.13;;;5.73;;
65567;SDS011;52211;50.154;8.682;2022-08-14T04:13:36;6.10;;;5.67;;
65567;SDS011;52211;50.154;8.682;2022-08-14T04:16:08;6.23;;;5.80;;
65567;SDS011;52211;50.154;8.682;2022-08-14T04:18:51;5.57;;;5.17;;
65567;SDS011;52211;50.154;8.682;2022-08-14T04:21:24;6.33;;;5.90;;
65567;SDS011;52211;50.154;8.682;2022-08-14T04:24:15;6.63;;;6.13;;
65567;SDS011;52211;50.154;8.682;2022-08-14T04:26:42;6.00;;;5.50;;
65567;SDS011;52211;50.154;8.682;2022-08-14T04:29:12;5.97;;;5.57;;
65567;SDS011;52211;50.154;8.682;2022-08-14T04:31:44;7.07;;;6.47;;
65567;SDS011;52211;50.154;8.682;2022-08-14T04:34:32;6.53;;;5.93;;
65567;SDS011;52211;50.154;8.682;2022-08-14T04:37:07;7.00;;;6.50;;
65567;SDS011;52211;50.154;8.682;2022-08-14T04:39:54;6.90;;;6.40;;
65567;SDS011;52211;50.154;8.682;2022-08-14T04:42:42;6.57;;;6.03;;
65567;SDS011;52211;50.154;8.682;2022-08-14T04:45:28;6.70;;;6.30;;
65567;SDS011;52211;50.154;8.682;2022-08-14T04:48:04;6.30;;;5.70;;
65567;SDS011;52211;50.154;8.682;2022-08-14T04:51:06;6.30;;;5.80;;
65567;SDS011;52211;50.154;8.682;2022-08-14T04:53:38;8.10;;;7.50;;
65567;SDS011;52211;50.154;8.682;2022-08-14T04:56:17;6.07;;;5.67;;
65567;SDS011;52211;50.154;8.682;2022-08-14T04:59:01;7.20;;;6.70;;
65567;SDS011;52211;50.154;8.682;2022-08-14T05:01:38;7.43;;;6.83;;
65567;SDS011;52211;50.154;8.682;2022-08-14T05:04:16;7.03;;;6.47;;
65567;SDS011;52211;50.154;8.682;2022-08-14T05:06:49;6.40;;;6.00;;
65567;SDS011;52211;50.154;8.682;2022-08-14T05:09:19;6.30;;;5.90;;
65567;SDS011;52211;50.154;8.682;2022-08-14T05:11:48;8.33;;;6.27;;
65567;SDS011;52211;50.154;8.682;2022-08-14T05:14:21;7.10;;;6.50;;
65567;SDS011;52211;50.154;8.682;2022-08-14T05:17:14;7.53;;;6.93;;
65567;SDS011;52211;50.154;8.682;2022-08-14T05:19:57;8.70;;;6.20;;
65567;SDS011;52211;50.154;8.682;2022-08-14T05:22:47;6.93;;;6.40;;
65567;SDS011;52211;50.154;8.682;2022-08-14T05:25:23;6.80;;;6.30;;
65567;SDS011;52211;50.154;8.682;2022-08-14T05:27:56;6.77;;;6.17;;
65567;SDS011;52211;50.154;8.682;2022-08-14T05:30:27;6.40;;;5.90;;
65567;SDS011;52211;50.154;8.682;2022-08-14T05:32:55;7.33;;;6.67;;
65567;SDS011;52211;50.154;8.682;2022-08-14T05:35:24;6.97;;;6.47;;
65567;SDS011;52211;50.154;8.682;2022-08-14T05:37:58;6.33;;;5.90;;
65567;SDS011;52211;50.154;8.682;2022-08-14T05:40:36;6.47;;;6.07;;
65567;SDS011;52211;50.154;8.682;2022-08-14T05:43:02;6.97;;;6.50;;
65567;SDS011;52211;50.154;8.682;2022-08-14T05:45:34;7.00;;;6.50;;
65567;SDS011;52211;50.154;8.682;2022-08-14T05:48:02;7.07;;;6.43;;
65567;SDS011;52211;50.154;8.682;2022-08-14T05:50:34;7.30;;;6.73;;
65567;SDS011;52211;50.154;8.682;2022-08-14T05:53:03;6.37;;;5.97;;
65567;SDS011;52211;50.154;8.682;2022-08-14T05:55:30;7.53;;;6.90;;
65567;SDS011;52211;50.154;8.682;2022-08-14T05:58:05;7.10;;;6.60;;
65567;SDS011;52211;50.154;8.682;2022-08-14T06:00:36;7.23;;;6.63;;
65567;SDS011;52211;50.154;8.682;2022-08-14T06:03:08;7.17;;;6.67;;
65567;SDS011;52211;50.154;8.682;2022-08-14T06:05:45;7.03;;;6.53;;
65567;SDS011;52211;50.154;8.682;2022-08-14T06:08:35;7.20;;;6.70;;
65567;SDS011;52211;50.154;8.682;2022-08-14T06:11:07;6.87;;;6.37;;
65567;SDS011;52211;50.154;8.682;2022-08-14T06:13:38;6.37;;;5.97;;
65567;SDS011;52211;50.154;8.682;2022-08-14T06:16:11;7.37;;;6.87;;
65567;SDS011;52211;50.154;8.682;2022-08-14T06:18:47;7.10;;;6.60;;
65567;SDS011;52211;50.154;8.682;2022-08-14T06:21:18;6.77;;;6.27;;
65567;SDS011;52211;50.154;8.682;2022-08-14T06:23:51;6.50;;;6.10;;
65567;SDS011;52211;50.154;8.682;2022-08-14T06:26:26;6.97;;;6.50;;
65567;SDS011;52211;50.154;8.682;2022-08-14T06:28:59;6.67;;;6.27;;
65567;SDS011;52211;50.154;8.682;2022-08-14T06:31:26;7.30;;;6.70;;
65567;SDS011;52211;50.154;8.682;2022-08-14T06:33:58;7.67;;;7.07;;
65567;SDS011;52211;50.154;8.682;2022-08-14T06:36:48;8.00;;;7.40;;
65567;SDS011;52211;50.154;8.682;2022-08-14T06:39:19;6.70;;;6.20;;
65567;SDS011;52211;50.154;8.682;2022-08-14T06:42:03;6.90;;;6.40;;
65567;SDS011;52211;50.154;8.682;2022-08-14T06:44:50;6.63;;;6.17;;
65567;SDS011;52211;50.154;8.682;2022-08-14T06:47:18;6.93;;;6.47;;
65567;SDS011;52211;50.154;8.682;2022-08-14T06:49:49;7.37;;;6.83;;
65567;SDS011;52211;50.154;8.682;2022-08-14T06:52:23;7.20;;;6.70;;
65567;SDS011;52211;50.154;8.682;2022-08-14T06:54:52;7.83;;;7.20;;
65567;SDS011;52211;50.154;8.682;2022-08-14T06:57:20;7.77;;;7.27;;
65567;SDS011;52211;50.154;8.682;2022-08-14T06:59:47;8.03;;;7.33;;
65567;SDS011;52211;50.154;8.682;2022-08-14T07:02:17;7.67;;;7.17;;
65567;SDS011;52211;50.154;8.682;2022-08-14T07:05:08;8.17;;;7.67;;
65567;SDS011;52211;50.154;8.682;2022-08-14T07:07:54;7.27;;;6.83;;
65567;SDS011;52211;50.154;8.682;2022-08-14T07:10:23;8.17;;;7.57;;
65567;SDS011;52211;50.154;8.682;2022-08-14T07:12:50;7.57;;;6.97;;
65567;SDS011;52211;50.154;8.682;2022-08-14T07:15:29;7.20;;;6.80;;
65567;SDS011;52211;50.154;8.682;2022-08-14T07:18:02;7.20;;;6.77;;
65567;SDS011;52211;50.154;8.682;2022-08-14T07:20:34;7.00;;;6.40;;
65567;SDS011;52211;50.154;8.682;2022-08-14T07:23:05;7.83;;;7.23;;
65567;SDS011;52211;50.154;8.682;2022-08-14T07:25:46;7.17;;;6.77;;
65567;SDS011;52211;50.154;8.682;2022-08-14T07:28:18;6.87;;;6.40;;
65567;SDS011;52211;50.154;8.682;2022-08-14T07:30:57;6.73;;;6.33;;
65567;SDS011;52211;50.154;8.682;2022-08-14T07:33:34;6.30;;;5.90;;
65567;SDS011;52211;50.154;8.682;2022-08-14T07:36:16;6.70;;;6.20;;
65567;SDS011;52211;50.154;8.682;2022-08-14T07:38:55;7.00;;;6.50;;
65567;SDS011;52211;50.154;8.682;2022-08-14T07:41:38;7.07;;;6.50;;
65567;SDS011;52211;50.154;8.682;2022-08-14T07:44:09;7.30;;;6.80;;
65567;SDS011;52211;50.154;8.682;2022-08-14T07:46:56;7.53;;;7.00;;
65567;SDS011;52211;50.154;8.682;2022-08-14T07:49:23;7.83;;;7.23;;
65567;SDS011;52211;50.154;8.682;2022-08-14T07:51:54;7.40;;;6.90;;
65567;SDS011;52211;50.154;8.682;2022-08-14T07:54:24;7.00;;;6.60;;
65567;SDS011;52211;50.154;8.682;2022-08-14T07:56:58;6.50;;;6.00;;
65567;SDS011;52211;50.154;8.682;2022-08-14T07:59:37;7.43;;;6.93;;
65567;SDS011;52211;50.154;8.682;2022-08-14T08:02:10;6.77;;;6.27;;
65567;SDS011;52211;50.154;8.682;2022-08-14T08:04:46;7.93;;;7.33;;
65567;SDS011;52211;50.154;8.682;2022-08-14T08:07:29;6.47;;;6.07;;
65567;SDS011;52211;50.154;8.682;2022-08-14T08:10:08;7.47;;;6.47;;
65567;SDS011;52211;50.154;8.682;2022-08-14T08:13:23;6.57;;;6.13;;
65567;SDS011;52211;50.154;8.682;2022-08-14T08:15:56;6.90;;;6.37;;
65567;SDS011;52211;50.154;8.682;2022-08-14T08:18:26;7.40;;;6.73;;
65567;SDS011;52211;50.154;8.682;2022-08-14T08:20:56;6.87;;;6.37;;
65567;SDS011;52211;50.154;8.682;2022-08-14T08:23:26;7.17;;;6.57;;
65567;SDS011;52211;50.154;8.682;2022-08-14T08:26:16;6.97;;;6.47;;
65567;SDS011;52211;50.154;8.682;2022-08-14T08:28:55;6.73;;;6.30;;
65567;SDS011;52211;50.154;8.682;2022-08-14T08:31:24;6.63;;;6.23;;
65567;SDS011;52211;50.154;8.682;2022-08-14T08:34:02;6.80;;;6.40;;
65567;SDS011;52211;50.154;8.682;2022-08-14T08:36:43;6.27;;;5.80;;
65567;SDS011;52211;50.154;8.682;2022-08-14T08:39:12;6.43;;;6.03;;
65567;SDS011;52211;50.154;8.682;2022-08-14T08:41:48;6.87;;;6.47;;
65567;SDS011;52211;50.154;8.682;2022-08-14T08:44:27;5.80;;;5.50;;
65567;SDS011;52211;50.154;8.682;2022-08-14T08:47:00;6.67;;;6.17;;
65567;SDS011;52211;50.154;8.682;2022-08-14T08:52:24;6.80;;;6.40;;
65567;SDS011;52211;50.154;8.682;2022-08-14T08:54:59;6.00;;;5.60;;
65567;SDS011;52211;50.154;8.682;2022-08-14T08:57:33;6.57;;;6.07;;
65567;SDS011;52211;50.154;8.682;2022-08-14T09:00:13;5.67;;;5.27;;
65567;SDS011;52211;50.154;8.682;2022-08-14T09:02:51;6.80;;;6.40;;
65567;SDS011;52211;50.154;8.682;2022-08-14T09:08:27;7.00;;;6.50;;
65567;SDS011;52211;50.154;8.682;2022-08-14T09:11:04;7.23;;;6.70;;
65567;SDS011;52211;50.154;8.682;2022-08-14T09:13:47;6.60;;;6.10;;
65567;SDS011;52211;50.154;8.682;2022-08-14T09:16:22;7.03;;;6.63;;
65567;SDS011;52211;50.154;8.682;2022-08-14T09:18:51;6.73;;;6.33;;
65567;SDS011;52211;50.154;8.682;2022-08-14T09:21:20;7.23;;;6.53;;
65567;SDS011;52211;50.154;8.682;2022-08-14T09:23:56;5.90;;;5.50;;
65567;SDS011;52211;50.154;8.682;2022-08-14T09:26:46;6.77;;;6.27;;
65567;SDS011;52211;50.154;8.682;2022-08-14T09:29:15;6.30;;;5.90;;
65567;SDS011;52211;50.154;8.682;2022-08-14T09:31:49;6.30;;;5.80;;
65567;SDS011;52211;50.154;8.682;2022-08-14T09:46:05;6.50;;;6.10;;
65567;SDS011;52211;50.154;8.682;2022-08-14T09:48:32;5.87;;;5.50;;
65567;SDS011;52211;50.154;8.682;2022-08-14T09:51:00;6.70;;;6.30;;
65567;SDS011;52211;50.154;8.682;2022-08-14T09:53:37;5.90;;;5.50;;
65567;SDS011;52211;50.154;8.682;2022-08-14T09:56:27;7.23;;;6.23;;
65567;SDS011;52211;50.154;8.682;2022-08-14T09:58:56;6.17;;;5.77;;
65567;SDS011;52211;50.154;8.682;2022-08-14T10:01:41;7.03;;;6.60;;
65567;SDS011;52211;50.154;8.682;2022-08-14T10:07:00;6.17;;;5.67;;
65567;SDS011;52211;50.154;8.682;2022-08-14T10:09:28;6.50;;;6.00;;
65567;SDS011;52211;50.154;8.682;2022-08-14T10:12:00;5.20;;;4.90;;
65567;SDS011;52211;50.154;8.682;2022-08-14T10:14:43;6.07;;;5.57;;
65567;SDS011;52211;50.154;8.682;2022-08-14T10:17:21;5.43;;;5.13;;
65567;SDS011;52211;50.154;8.682;2022-08-14T10:19:58;5.07;;;4.77;;
65567;SDS011;52211;50.154;8.682;2022-08-14T10:22:25;5.47;;;5.17;;
65567;SDS011;52211;50.154;8.682;2022-08-14T10:25:18;4.90;;;4.60;;
65567;SDS011;52211;50.154;8.682;2022-08-14T10:27:55;5.53;;;5.20;;
65567;SDS011;52211;50.154;8.682;2022-08-14T10:30:31;5.60;;;5.30;;
65567;SDS011;52211;50.154;8.682;2022-08-14T10:33:03;5.53;;;5.23;;
65567;SDS011;52211;50.154;8.682;2022-08-14T10:35:39;5.63;;;5.17;;
65567;SDS011;52211;50.154;8.682;2022-08-14T10:38:24;5.27;;;4.93;;
65567;SDS011;52211;50.154;8.682;2022-08-14T10:41:13;4.97;;;4.67;;
65567;SDS011;52211;50.154;8.682;2022-08-14T10:43:44;6.40;;;5.90;;
65567;SDS011;52211;50.154;8.682;2022-08-14T10:49:42;4.80;;;4.40;;
65567;SDS011;52211;50.154;8.682;2022-08-14T10:52:26;5.60;;;5.30;;
65567;SDS011;52211;50.154;8.682;2022-08-14T10:55:14;5.20;;;4.90;;
65567;SDS011;52211;50.154;8.682;2022-08-14T10:57:50;5.00;;;4.70;;
65567;SDS011;52211;50.154;8.682;2022-08-14T11:00:20;5.30;;;4.90;;
65567;SDS011;52211;50.154;8.682;2022-08-14T11:03:10;5.13;;;4.73;;
65567;SDS011;52211;50.154;8.682;2022-08-14T11:06:09;4.97;;;4.50;;
65567;SDS011;52211;50.154;8.682;2022-08-14T11:08:49;5.80;;;5.43;;
65567;SDS011;52211;50.154;8.682;2022-08-14T11:11:22;4.90;;;4.63;;
65567;SDS011;52211;50.154;8.682;2022-08-14T11:14:02;4.97;;;4.67;;
65567;SDS011;52211;50.154;8.682;2022-08-14T11:16:35;5.47;;;5.17;;
65567;SDS011;52211;50.154;8.682;2022-08-14T11:19:16;5.73;;;5.43;;
65567;SDS011;52211;50.154;8.682;2022-08-14T11:21:52;4.70;;;4.47;;
65567;SDS011;52211;50.154;8.682;2022-08-14T11:24:21;5.10;;;4.70;;
65567;SDS011;52211;50.154;8.682;2022-08-14T11:27:14;4.70;;;4.50;;
65567;SDS011;52211;50.154;8.682;2022-08-14T11:29:47;4.93;;;4.57;;
65567;SDS011;52211;50.154;8.682;2022-08-14T11:32:25;5.30;;;4.90;;
65567;SDS011;52211;50.154;8.682;2022-08-14T11:34:59;4.80;;;4.60;;
65567;SDS011;52211;50.154;8.682;2022-08-14T11:37:31;4.40;;;4.20;;
65567;SDS011;52211;50.154;8.682;2022-08-14T11:40:13;4.60;;;4.30;;
65567;SDS011;52211;50.154;8.682;2022-08-14T11:42:50;4.80;;;4.50;;
65567;SDS011;52211;50.154;8.682;2022-08-14T11:45:28;4.37;;;4.17;;
65567;SDS011;52211;50.154;8.682;2022-08-14T11:48:15;4.55;;;4.35;;
65567;SDS011;52211;50.154;8.682;2022-08-14T11:51:11;4.60;;;4.30;;
65567;SDS011;52211;50.154;8.682;2022-08-14T11:53:50;4.35;;;4.15;;
65567;SDS011;52211;50.154;8.682;2022-08-14T11:56:34;4.25;;;4.05;;
65567;SDS011;52211;50.154;8.682;2022-08-14T11:59:04;4.25;;;4.05;;
65567;SDS011;52211;50.154;8.682;2022-08-14T12:01:36;4.53;;;3.75;;
65567;SDS011;52211;50.154;8.682;2022-08-14T12:04:10;4.00;;;3.70;;
65567;SDS011;52211;50.154;8.682;2022-08-14T12:06:59;4.32;;;4.13;;
65567;SDS011;52211;50.154;8.682;2022-08-14T12:09:30;4.15;;;3.83;;
65567;SDS011;52211;50.154;8.682;2022-08-14T12:15:12;3.65;;;3.50;;
65567;SDS011;52211;50.154;8.682;2022-08-14T12:17:43;4.00;;;3.83;;
65567;SDS011;52211;50.154;8.682;2022-08-14T12:20:17;4.38;;;3.90;;
65567;SDS011;52211;50.154;8.682;2022-08-14T12:22:58;3.58;;;3.47;;
65567;SDS011;52211;50.154;8.682;2022-08-14T12:25:30;4.13;;;3.92;;
65567;SDS011;52211;50.154;8.682;2022-08-14T12:28:01;4.05;;;3.83;;
65567;SDS011;52211;50.154;8.682;2022-08-14T12:30:56;3.92;;;3.72;;
65567;SDS011;52211;50.154;8.682;2022-08-14T12:36:00;3.72;;;3.53;;
65567;SDS011;52211;50.154;8.682;2022-08-14T12:38:45;3.83;;;3.63;;
65567;SDS011;52211;50.154;8.682;2022-08-14T12:41:22;4.10;;;3.90;;
65567;SDS011;52211;50.154;8.682;2022-08-14T12:44:03;4.32;;;4.03;;
65567;SDS011;52211;50.154;8.682;2022-08-14T12:49:09;4.60;;;4.40;;
65567;SDS011;52211;50.154;8.682;2022-08-14T12:51:41;4.22;;;4.03;;
65567;SDS011;52211;50.154;8.682;2022-08-14T12:54:20;4.53;;;4.32;;
65567;SDS011;52211;50.154;8.682;2022-08-14T12:57:04;4.00;;;3.90;;
65567;SDS011;52211;50.154;8.682;2022-08-14T12:59:48;4.40;;;4.20;;
65567;SDS011;52211;50.154;8.682;2022-08-14T13:02:20;4.57;;;4.38;;
65567;SDS011;52211;50.154;8.682;2022-08-14T13:04:57;4.82;;;4.55;;
65567;SDS011;52211;50.154;8.682;2022-08-14T13:07:26;4.30;;;4.10;;
65567;SDS011;52211;50.154;8.682;2022-08-14T13:09:59;4.30;;;4.10;;
65567;SDS011;52211;50.154;8.682;2022-08-14T13:12:48;4.78;;;4.57;;
65567;SDS011;52211;50.154;8.682;2022-08-14T13:15:40;4.13;;;3.92;;
65567;SDS011;52211;50.154;8.682;2022-08-14T13:18:13;4.47;;;4.28;;
65567;SDS011;52211;50.154;8.682;2022-08-14T13:20:49;4.13;;;3.92;;
65567;SDS011;52211;50.154;8.682;2022-08-14T13:23:26;4.10;;;3.90;;
65567;SDS011;52211;50.154;8.682;2022-08-14T13:26:03;4.78;;;4.47;;
65567;SDS011;52211;50.154;8.682;2022-08-14T13:28:38;4.22;;;4.03;;
65567;SDS011;52211;50.154;8.682;2022-08-14T13:31:28;4.00;;;3.80;;
65567;SDS011;52211;50.154;8.682;2022-08-14T13:34:05;4.25;;;4.05;;
65567;SDS011;52211;50.154;8.682;2022-08-14T13:36:39;4.47;;;4.28;;
65567;SDS011;52211;50.154;8.682;2022-08-14T13:39:22;4.53;;;4.32;;
65567;SDS011;52211;50.154;8.682;2022-08-14T13:41:51;4.68;;;4.35;;
65567;SDS011;52211;50.154;8.682;2022-08-14T13:44:33;4.35;;;4.15;;
65567;SDS011;52211;50.154;8.682;2022-08-14T13:47:01;4.80;;;4.60;;
65567;SDS011;52211;50.154;8.682;2022-08-14T13:49:34;4.70;;;4.50;;
65567;SDS011;52211;50.154;8.682;2022-08-14T13:52:23;4.93;;;4.72;;
65567;SDS011;52211;50.154;8.682;2022-08-14T13:55:18;4.95;;;4.75;;
65567;SDS011;52211;50.154;8.682;2022-08-14T13:57:58;5.00;;;4.72;;
65567;SDS011;52211;50.154;8.682;2022-08-14T14:00:31;5.10;;;4.88;;
65567;SDS011;52211;50.154;8.682;2022-08-14T14:03:21;5.50;;;5.20;;
65567;SDS011;52211;50.154;8.682;2022-08-14T14:05:57;4.97;;;4.78;;
65567;SDS011;52211;50.154;8.682;2022-08-14T14:08:27;5.20;;;4.90;;
65567;SDS011;52211;50.154;8.682;2022-08-14T14:11:13;5.90;;;5.60;;
65567;SDS011;52211;50.154;8.682;2022-08-14T14:13:44;5.05;;;4.85;;
65567;SDS011;52211;50.154;8.682;2022-08-14T14:16:14;4.60;;;4.40;;
65567;SDS011;52211;50.154;8.682;2022-08-14T14:18:55;4.55;;;4.35;;
65567;SDS011;52211;50.154;8.682;2022-08-14T14:21:35;4.72;;;4.53;;
65567;SDS011;52211;50.154;8.682;2022-08-14T14:24:08;4.82;;;4.63;;
65567;SDS011;52211;50.154;8.682;2022-08-14T14:26:42;5.20;;;5.00;;
65567;SDS011;52211;50.154;8.682;2022-08-14T14:29:16;5.68;;;5.40;;
65567;SDS011;52211;50.154;8.682;2022-08-14T14:31:51;4.63;;;4.43;;
65567;SDS011;52211;50.154;8.682;2022-08-14T14:34:25;5.15;;;4.95;;
65567;SDS011;52211;50.154;8.682;2022-08-14T14:36:58;4.85;;;4.55;;
65567;SDS011;52211;50.154;8.682;2022-08-14T14:39:30;5.03;;;4.82;;
65567;SDS011;52211;50.154;8.682;2022-08-14T14:42:03;5.03;;;4.82;;
65567;SDS011;52211;50.154;8.682;2022-08-14T14:44:36;4.68;;;4.47;;
65567;SDS011;52211;50.154;8.682;2022-08-14T14:47:08;4.95;;;4.72;;
65567;SDS011;52211;50.154;8.682;2022-08-14T14:49:48;5.05;;;4.80;;
65567;SDS011;52211;50.154;8.682;2022-08-14T14:52:21;5.65;;;5.30;;
65567;SDS011;52211;50.154;8.682;2022-08-14T14:54:54;5.82;;;5.43;;
65567;SDS011;52211;50.154;8.682;2022-08-14T14:57:26;4.75;;;4.55;;
65567;SDS011;52211;50.154;8.682;2022-08-14T15:00:02;4.47;;;4.28;;
65567;SDS011;52211;50.154;8.682;2022-08-14T15:02:45;5.20;;;4.93;;
65567;SDS011;52211;50.154;8.682;2022-08-14T15:05:23;4.80;;;4.60;;
65567;SDS011;52211;50.154;8.682;2022-08-14T15:07:53;5.47;;;5.18;;
65567;SDS011;52211;50.154;8.682;2022-08-14T15:10:28;5.32;;;5.03;;
65567;SDS011;52211;50.154;8.682;2022-08-14T15:13:05;4.70;;;4.50;;
65567;SDS011;52211;50.154;8.682;2022-08-14T15:15:35;5.40;;;5.10;;
65567;SDS011;52211;50.154;8.682;2022-08-14T15:18:07;5.45;;;5.18;;
65567;SDS011;52211;50.154;8.682;2022-08-14T15:20:58;5.10;;;4.90;;
65567;SDS011;52211;50.154;8.682;2022-08-14T15:23:30;5.22;;;5.03;;
65567;SDS011;52211;50.154;8.682;2022-08-14T15:26:10;5.18;;;4.97;;
65567;SDS011;52211;50.154;8.682;2022-08-14T15:28:58;5.47;;;5.18;;
65567;SDS011;52211;50.154;8.682;2022-08-14T15:31:32;5.90;;;5.60;;
65567;SDS011;52211;50.154;8.682;2022-08-14T15:34:04;5.65;;;5.35;;
65567;SDS011;52211;50.154;8.682;2022-08-14T15:37:03;5.90;;;5.60;;
65567;SDS011;52211;50.154;8.682;2022-08-14T15:39:38;5.63;;;5.43;;
65567;SDS011;52211;50.154;8.682;2022-08-14T15:42:09;6.15;;;5.85;;
65567;SDS011;52211;50.154;8.682;2022-08-14T15:44:46;5.47;;;5.20;;
65567;SDS011;52211;50.154;8.682;2022-08-14T15:47:28;5.70;;;5.40;;
65567;SDS011;52211;50.154;8.682;2022-08-14T15:49:58;4.85;;;4.60;;
65567;SDS011;52211;50.154;8.682;2022-08-14T15:52:38;5.30;;;5.10;;
65567;SDS011;52211;50.154;8.682;2022-08-14T15:55:13;4.88;;;4.68;;
65567;SDS011;52211;50.154;8.682;2022-08-14T15:57:42;5.15;;;4.95;;
65567;SDS011;52211;50.154;8.682;2022-08-14T16:00:27;4.88;;;4.63;;
65567;SDS011;52211;50.154;8.682;2022-08-14T16:03:18;5.60;;;5.30;;
65567;SDS011;52211;50.154;8.682;2022-08-14T16:06:04;5.20;;;5.00;;
65567;SDS011;52211;50.154;8.682;2022-08-14T16:08:43;5.70;;;5.43;;
65567;SDS011;52211;50.154;8.682;2022-08-14T16:11:25;4.90;;;4.70;;
65567;SDS011;52211;50.154;8.682;2022-08-14T16:13:58;5.40;;;5.10;;
65567;SDS011;52211;50.154;8.682;2022-08-14T16:16:32;5.00;;;4.70;;
65567;SDS011;52211;50.154;8.682;2022-08-14T16:19:16;5.50;;;5.30;;